Historyczne dane pomiarowe

Dodano dane terminowe – wersja testowa.

Dane z okresu 1951-2019

Wersja bazy: 1.34 [2019-03-16, lista zmian], aktualizacja planowana na 2019-04-15

Dane meteo z obszaru Polski uzyskane na podstawie danych udostępnionych przez Instytut Meteorologii i Gospodarki Wodnej – Państwowy Instytut Badawczy.

 

Wybierz Datę:    

       

TemperaturaWilgotnośćWiatrCiśnienieOpadyŚniegCzas trwania zjawisk
 Stacja t tx tn tng RH VA  wxwx mslp ppp RRR   cm mm wxwxwxwxwxwxwx
1961-08-14 12.7 18.9 6.8- 80.5- 1.7 1.0---- 0.0------------
1961-08-13 12.1 14.4 11.1- 93.0- 5.3 1.0---- 19.0------------
1961-08-12 17.8 24.4 14.2- 85.0- 6.3 1.0---- 50.8------------
1961-08-11 22.8 32.0 17.6- 77.5- 2.0 1.7---- 0.2------------
1961-08-10 24.2 30.0 17.9- 85.5- 1.7 1.3---- 0.0------------
1961-08-09 23.2 28.7 16.2- 80.0- 5.3 1.0---- 15.4------------
1961-08-08 18.4 22.8 15.4- 81.5- 4.0 1.3---- 0.0------------
1961-08-07 23.0 30.5 13.9- 69.3- 4.3 1.3---- 1.3------------
1961-08-06 22.9 30.8 13.4- 67.5- 0.3 1.3---- 0.0------------
1961-08-05 18.8 23.4 14.4- 73.8- 4.3 1.7---- 0.0------------
1961-08-04 16.2 21.1 8.1- 69.8- 5.7 1.0---- 0.0------------
1961-08-03 16.2 21.4 11.4- 82.3- 7.7 1.7---- 0.5------------
1961-08-02 18.3 26.1 9.4- 74.0- 2.7 1.3---- 0.0------------
1961-08-01 14.9 21.0 10.1- 75.8- 4.3 1.7---- 0.0------------
1961-07-31 12.6 15.5 10.5- 91.5- 8.0 2.0---- 8.6------------
1961-07-30 11.4 12.8 10.8- 90.3- 8.0 1.3---- 16.4------------
1961-07-29 12.7 19.4 11.7- 91.8- 8.0 1.3---- 14.1------------
1961-07-28 21.1 26.5 15.4- 67.0- 7.3 1.3---- 26.8------------
1961-07-27 23.2 26.5 13.1- 57.0- 5.7 1.0---- 0.0------------
1961-07-26 16.7 23.9 9.2- 64.3- 3.0 1.0---- 0.0------------
1961-07-25 13.1 16.3 9.6- 76.3- 7.7 1.0---- 0.0------------
1961-07-24 14.7 18.4 12.2- 72.3- 6.7 2.0---- 0.0------------
1961-07-23 16.6 20.9 11.4- 73.8- 5.7 1.3---- 0.0------------
1961-07-22 14.0 19.1 11.9- 87.5- 8.0 1.3---- 5.6------------
1961-07-21 15.8 19.9 8.4- 78.3- 7.7 1.3---- 3.4------------
1961-07-20 14.0 19.8 8.9- 89.5- 6.7 0.7---- 1.8------------
1961-07-19 14.3 19.4 9.8- 85.5- 7.0 1.0---- 11.2------------
1961-07-18 15.0 19.4 10.8- 74.5- 5.0 2.0---- 0.0------------
1961-07-17 15.1 22.2 11.9- 74.3- 3.3 2.3---- 0.4------------
1961-07-16 16.2 21.4 13.9- 77.8- 6.3 3.0---- 0.0------------
1961-07-15 18.9 24.1 11.4- 70.8- 6.3 1.3---- 10.8------------
1961-07-14 14.8 19.9 12.7- 62.8- 5.0 3.0---- 0.0------------
1961-07-13 20.9 29.5 13.4- 72.8- 4.0 1.3---- 8.0------------
1961-07-12 20.1 28.5 11.7- 78.5- 2.7 1.0---- 0.0------------
1961-07-11 16.1 22.4 7.6- 72.3- 3.0 1.0---- 2.8------------
1961-07-10 14.1 18.4 11.9- 75.5- 6.0 2.7---- 2.2------------
1961-07-09 14.4 21.9 8.1- 76.8- 5.7 2.3---- 0.6------------
1961-07-08 13.8 20.9 6.0- 73.3- 4.7 1.0---- 0.0------------
1961-07-07 11.9 17.3 10.2- 81.0- 6.3 1.3---- 0.0------------
1961-07-06 13.3 16.5 6.3- 65.8- 6.0 2.3---- 0.5------------
1961-07-05 14.2 20.6 12.7- 77.8- 7.0 1.7---- 0.0------------
1961-07-04 22.3 29.0 14.9- 68.8- 4.0 1.0---- 9.3------------
1961-07-03 22.3 30.2 12.2- 62.3- 0.0 1.0---- 0.0------------
1961-07-02 19.9 29.0 11.7- 68.5- 0.0 1.0---- 0.0------------
1961-07-01 19.6 27.1 10.8- 71.3- 1.3 1.0---- 0.0------------
1961-06-30 17.3 23.4 9.3- 71.3- 0.3 1.0---- 0.0------------
1961-06-29 15.7 20.6 7.0- 74.3- 5.0 2.3---- 0.0------------
1961-06-28 14.2 19.4 12.8- 74.8- 6.7 2.0---- 2.7------------
1961-06-27 22.6 32.0 13.9- 72.0- 5.0 1.3---- 17.3------------
1961-06-26 21.1 31.3 14.9- 74.3- 6.0 1.3---- 4.7------------
1961-06-25 20.8 29.6 10.9- 67.5- 1.7 1.7---- 0.0------------
1961-06-24 18.5 24.9 10.8- 70.8- 3.7 2.0---- 0.0------------
1961-06-23 18.1 23.5 15.6- 77.0- 4.7 1.7---- 0.0------------
1961-06-22 18.7 26.0 9.2- 72.8- 4.7 2.0---- 1.6------------
1961-06-21 16.5 23.4 6.5- 65.5- 0.0 1.7---- 0.0------------
1961-06-20 15.1 20.4 12.8- 69.0- 4.3 1.7---- 0.0------------
1961-06-19 20.2 27.3 12.8- 70.0- 3.3 1.7---- 0.0------------
1961-06-18 18.7 25.5 8.3- 70.3- 0.3 1.7---- 0.0------------
1961-06-17 15.3 22.2 7.2- 63.5- 2.0 1.3---- 0.0------------
1961-06-16 13.5 19.2 8.2- 72.5- 2.3 1.7---- 0.0------------
359.3 ms

 

Źródłem pochodzenia danych jest Instytut Meteorologii i Gospodarki Wodnej – Państwowy Instytut Badawczy. Dane Instytutu Meteorologii i Gospodarki Wodnej – Państwowego Instytutu Badawczego zostały przetworzone.

Dane źródłowe można odnaleźć na stronie https://dane.imgw.pl